Time;durP1;ratioP1;P1;durP2;ratioP2;P2;SDS_P1;SDS_P2;PMS_P1;PMS_P2;Temp;Humidity;BMP_temperature;BMP_pressure;BME280_temperature;BME280_humidity;BME280_pressure;Samples;Min_cycle;Max_cycle;Signal;HPM_P1;HPM_P2
2023/06/23 00:00:37;;;;;;;28.70;22.93;;;17.90;99.90;;;;;;5076126;28;20545;-69
2023/06/23 00:03:04;;;;;;;33.47;22.20;;;17.90;99.90;;;;;;5076311;28;20460;-69
2023/06/23 00:05:31;;;;;;;27.40;23.17;;;17.90;99.90;;;;;;5076243;28;20962;-69
2023/06/23 00:07:58;;;;;;;27.63;23.90;;;17.90;99.90;;;;;;5076173;28;20468;-69
2023/06/23 00:10:26;;;;;;;25.73;22.70;;;17.90;99.90;;;;;;5076262;28;20576;-69
2023/06/23 00:12:53;;;;;;;25.60;22.80;;;17.90;99.90;;;;;;5076099;28;20531;-69
2023/06/23 00:15:22;;;;;;;30.10;23.07;;;17.80;99.90;;;;;;5075954;28;20458;-69
2023/06/23 00:17:50;;;;;;;25.83;22.90;;;17.80;99.90;;;;;;5076115;28;20549;-69
2023/06/23 00:20:19;;;;;;;27.70;21.80;;;17.80;99.90;;;;;;5075783;28;20526;-69
2023/06/23 00:22:46;;;;;;;24.33;21.40;;;17.80;99.90;;;;;;5076113;28;20474;-69
2023/06/23 00:25:13;;;;;;;27.37;21.43;;;17.70;99.90;;;;;;5076046;28;20557;-69
2023/06/23 00:27:45;;;;;;;27.33;22.17;;;17.80;99.90;;;;;;5075922;28;20450;-69
2023/06/23 00:30:12;;;;;;;24.43;21.80;;;17.80;99.90;;;;;;5075409;28;20942;-69
2023/06/23 00:32:40;;;;;;;22.93;19.43;;;17.80;99.90;;;;;;5075864;28;20462;-69
2023/06/23 00:35:08;;;;;;;24.40;20.60;;;17.80;99.90;;;;;;5075863;28;20553;-69
2023/06/23 00:37:37;;;;;;;25.50;19.53;;;17.80;99.90;;;;;;5075562;28;20505;-69
2023/06/23 00:40:08;;;;;;;21.90;18.27;;;17.90;99.90;;;;;;5075659;28;20485;-69
2023/06/23 00:42:45;;;;;;;22.50;18.53;;;17.90;99.90;;;;;;5075400;28;20446;-69
2023/06/23 00:45:15;;;;;;;23.90;18.50;;;17.90;99.90;;;;;;5075242;28;20542;-69
2023/06/23 00:47:43;;;;;;;21.90;17.93;;;17.80;99.90;;;;;;5075163;28;20465;-69
2023/06/23 00:50:13;;;;;;;22.27;17.07;;;17.80;99.90;;;;;;5075329;28;20482;-69
2023/06/23 00:52:40;;;;;;;20.03;17.63;;;17.80;99.90;;;;;;5075301;28;20457;-69
2023/06/23 00:55:07;;;;;;;24.70;16.73;;;17.80;99.90;;;;;;5075160;28;20464;-69
2023/06/23 00:57:36;;;;;;;23.20;18.60;;;17.80;99.90;;;;;;5074901;28;20537;-69
2023/06/23 01:00:17;;;;;;;19.50;15.73;;;17.80;99.90;;;;;;5074419;28;20507;-69
2023/06/23 01:02:44;;;;;;;19.13;16.40;;;17.80;99.90;;;;;;5074993;28;20823;-69
2023/06/23 01:05:11;;;;;;;20.30;15.60;;;17.70;99.90;;;;;;5074809;28;20910;-68
2023/06/23 01:07:45;;;;;;;19.40;15.50;;;17.70;99.90;;;;;;5074870;28;20454;-68
2023/06/23 01:10:20;;;;;;;22.20;16.90;;;17.60;99.90;;;;;;5075002;28;20553;-68
2023/06/23 01:12:57;;;;;;;19.30;15.33;;;17.60;99.90;;;;;;5074456;28;20442;-68
2023/06/23 01:15:31;;;;;;;21.57;15.90;;;17.60;99.90;;;;;;5074930;28;20442;-69
2023/06/23 01:18:06;;;;;;;19.23;16.80;;;17.60;99.90;;;;;;5074867;28;20443;-69
2023/06/23 01:20:39;;;;;;;19.93;16.23;;;17.60;99.90;;;;;;5074486;28;20469;-69
2023/06/23 01:23:22;;;;;;;21.50;17.30;;;17.60;99.90;;;;;;5074819;28;20775;-69
2023/06/23 01:25:55;;;;;;;22.00;16.47;;;17.60;99.90;;;;;;5074785;28;20538;-69
2023/06/23 01:28:57;;;;;;;23.07;17.90;;;17.70;99.90;;;;;;5074746;28;20474;-69
2023/06/23 01:31:31;;;;;;;22.77;17.00;;;17.70;99.90;;;;;;5013463;28;20511;-69
2023/06/23 01:34:02;;;;;;;20.90;16.67;;;17.70;99.90;;;;;;5012952;28;20441;-69
2023/06/23 01:36:37;;;;;;;33.73;18.27;;;17.70;99.90;;;;;;5045541;28;20446;-69
2023/06/23 01:39:07;;;;;;;22.67;17.77;;;17.70;99.90;;;;;;5074448;28;20993;-69
2023/06/23 01:41:42;;;;;;;25.10;17.60;;;17.70;99.90;;;;;;5074304;28;20490;-69
2023/06/23 01:44:14;;;;;;;20.70;18.50;;;17.70;99.90;;;;;;5074667;28;20465;-69
2023/06/23 01:46:44;;;;;;;22.43;17.23;;;17.70;99.90;;;;;;5074330;28;20449;-69
2023/06/23 01:49:17;;;;;;;18.67;16.63;;;17.60;99.90;;;;;;5074128;28;20450;-69
2023/06/23 01:51:49;;;;;;;22.13;17.53;;;17.60;99.90;;;;;;5074960;28;20814;-69
2023/06/23 01:54:17;;;;;;;22.10;17.60;;;17.60;99.90;;;;;;5074656;28;20443;-69
2023/06/23 01:56:46;;;;;;;21.50;16.73;;;17.60;99.90;;;;;;5074827;28;20845;-69
2023/06/23 01:59:15;;;;;;;23.17;18.60;;;17.60;99.90;;;;;;5074537;28;20464;-69
2023/06/23 02:01:45;;;;;;;21.73;17.77;;;17.60;99.90;;;;;;5074598;28;20469;-69
2023/06/23 02:04:13;;;;;;;21.33;16.70;;;17.60;99.90;;;;;;5074581;28;20540;-69
2023/06/23 02:06:42;;;;;;;22.60;17.40;;;17.60;99.90;;;;;;5074544;28;20454;-69
2023/06/23 02:09:19;;;;;;;21.70;18.37;;;17.60;99.90;;;;;;5073994;28;20923;-69
2023/06/23 02:11:47;;;;;;;22.00;17.47;;;17.70;99.90;;;;;;5076876;28;20844;-69
2023/06/23 02:14:17;;;;;;;27.33;18.07;;;17.70;99.90;;;;;;5078095;28;20545;-69
2023/06/23 02:16:46;;;;;;;31.80;16.53;;;17.70;99.90;;;;;;5078349;28;20500;-69
2023/06/23 02:19:15;;;;;;;19.60;16.20;;;17.70;99.90;;;;;;5078058;28;20986;-69
2023/06/23 02:21:43;;;;;;;25.27;18.40;;;17.70;99.90;;;;;;5077906;28;21000;-69
2023/06/23 02:24:12;;;;;;;26.37;17.40;;;17.70;99.90;;;;;;5078332;28;20464;-69
2023/06/23 02:26:41;;;;;;;24.47;17.53;;;17.70;99.90;;;;;;5077632;28;20467;-69
2023/06/23 02:29:09;;;;;;;23.93;17.43;;;17.70;99.90;;;;;;5077654;28;20946;-69
2023/06/23 02:31:38;;;;;;;23.37;18.50;;;17.70;99.90;;;;;;5078172;28;20612;-69
2023/06/23 02:34:08;;;;;;;23.80;16.60;;;17.70;99.90;;;;;;5078403;28;20449;-68
2023/06/23 02:36:42;;;;;;;25.87;17.20;;;17.70;99.90;;;;;;5077795;28;20793;-68
2023/06/23 02:39:11;;;;;;;22.73;16.70;;;17.70;99.90;;;;;;5078034;28;20829;-68
2023/06/23 02:41:40;;;;;;;22.07;16.43;;;17.70;99.90;;;;;;5077861;28;20541;-70
2023/06/23 02:44:15;;;;;;;21.70;17.07;;;17.60;99.90;;;;;;5077303;28;20486;-68
2023/06/23 02:46:47;;;;;;;21.67;17.20;;;17.60;99.90;;;;;;5077614;28;20442;-69
2023/06/23 02:49:18;;;;;;;25.23;18.53;;;17.60;99.90;;;;;;5077800;28;20446;-69
2023/06/23 02:51:46;;;;;;;22.70;18.10;;;17.60;99.90;;;;;;5077432;28;20466;-69
2023/06/23 02:54:18;;;;;;;25.30;18.37;;;17.70;99.90;;;;;;5077595;28;20801;-69
2023/06/23 02:56:47;;;;;;;24.00;18.47;;;17.70;99.90;;;;;;5077656;28;20818;-69
2023/06/23 02:59:19;;;;;;;21.20;17.40;;;17.70;99.90;;;;;;5077735;28;20454;-70
2023/06/23 03:01:52;;;;;;;27.47;18.93;;;17.70;99.90;;;;;;5077615;28;20597;-68
2023/06/23 03:04:19;;;;;;;26.43;19.70;;;17.60;99.90;;;;;;5077398;28;20438;-68
2023/06/23 03:06:46;;;;;;;28.90;18.97;;;17.60;99.90;;;;;;5077488;28;20461;-68
2023/06/23 03:09:13;;;;;;;25.30;19.37;;;17.60;99.90;;;;;;5077116;28;20469;-68
2023/06/23 03:11:40;;;;;;;33.57;20.47;;;17.60;99.90;;;;;;5076910;28;20511;-68
2023/06/23 03:14:07;;;;;;;24.70;19.50;;;17.60;99.90;;;;;;5077357;28;20982;-68
2023/06/23 03:16:43;;;;;;;28.57;20.57;;;17.60;99.90;;;;;;5077273;28;20458;-68
2023/06/23 03:19:20;;;;;;;26.57;20.57;;;17.60;99.90;;;;;;5076863;28;20489;-68
2023/06/23 03:21:52;;;;;;;26.60;20.17;;;17.60;99.90;;;;;;5077136;28;20448;-68
2023/06/23 03:24:21;;;;;;;25.67;19.90;;;17.60;99.90;;;;;;5076604;28;20458;-68
2023/06/23 03:26:50;;;;;;;28.07;20.87;;;17.60;99.90;;;;;;5077439;28;20548;-68
2023/06/23 03:29:20;;;;;;;27.03;20.50;;;17.60;99.90;;;;;;5076934;28;20858;-68
2023/06/23 03:31:51;;;;;;;25.83;20.43;;;17.60;99.90;;;;;;5077150;28;20569;-68
2023/06/23 03:34:21;;;;;;;30.47;20.80;;;17.70;99.90;;;;;;5076542;28;20462;-68
2023/06/23 03:36:49;;;;;;;24.80;20.13;;;17.70;99.90;;;;;;5076757;28;20861;-68
2023/06/23 03:39:25;;;;;;;26.27;20.37;;;17.70;99.90;;;;;;5076742;28;20475;-68
2023/06/23 03:41:53;;;;;;;27.33;21.40;;;17.80;99.90;;;;;;5076770;28;20450;-68
2023/06/23 03:44:26;;;;;;;27.33;20.50;;;17.80;99.90;;;;;;5076935;28;20545;-67
2023/06/23 03:46:58;;;;;;;29.47;21.20;;;17.80;99.90;;;;;;5076442;28;20887;-68
2023/06/23 03:49:31;;;;;;;26.80;21.63;;;17.90;99.90;;;;;;5076347;28;20537;-68
2023/06/23 03:52:01;;;;;;;31.00;22.10;;;17.90;99.90;;;;;;5076276;28;20476;-67
2023/06/23 03:54:29;;;;;;;30.00;22.97;;;17.90;99.90;;;;;;5076206;28;20458;-68
2023/06/23 03:56:57;;;;;;;32.53;22.23;;;17.90;99.90;;;;;;5076297;28;20480;-68
2023/06/23 03:59:27;;;;;;;31.77;22.20;;;17.90;99.90;;;;;;5076136;28;20454;-68
2023/06/23 04:01:55;;;;;;;32.33;23.67;;;17.90;99.90;;;;;;5075865;28;20552;-68
2023/06/23 04:04:23;;;;;;;33.30;24.43;;;18.00;99.90;;;;;;5076204;28;20490;-68
2023/06/23 04:06:54;;;;;;;29.23;21.97;;;18.00;99.90;;;;;;5076077;28;20458;-68
2023/06/23 04:09:22;;;;;;;37.17;23.67;;;18.00;99.90;;;;;;5075691;28;20442;-68
2023/06/23 04:11:51;;;;;;;33.93;23.90;;;18.00;99.90;;;;;;5075831;28;20482;-68
2023/06/23 04:14:20;;;;;;;29.27;22.20;;;18.00;99.90;;;;;;5076178;28;20497;-68
2023/06/23 04:16:50;;;;;;;27.30;21.77;;;18.00;99.90;;;;;;5076032;28;20544;-68
2023/06/23 04:19:18;;;;;;;31.00;23.07;;;17.90;99.90;;;;;;5075771;28;20529;-70
2023/06/23 04:21:47;;;;;;;30.00;22.43;;;17.90;99.90;;;;;;5075693;28;20925;-68
2023/06/23 04:24:17;;;;;;;31.03;21.47;;;17.90;99.90;;;;;;5076134;28;20943;-68
2023/06/23 04:26:46;;;;;;;29.10;22.53;;;17.90;99.90;;;;;;5075701;28;20526;-69
2023/06/23 04:29:15;;;;;;;30.10;22.40;;;17.90;99.90;;;;;;5075381;28;20549;-69
2023/06/23 04:31:43;;;;;;;29.60;22.73;;;17.90;99.90;;;;;;5075173;28;20478;-69
2023/06/23 04:34:10;;;;;;;28.00;21.93;;;17.90;99.90;;;;;;5075580;28;20550;-69
2023/06/23 04:36:44;;;;;;;30.37;21.53;;;17.90;99.90;;;;;;5075192;28;20541;-69
2023/06/23 04:39:19;;;;;;;28.70;21.47;;;17.90;99.90;;;;;;5075084;28;20912;-68
2023/06/23 04:41:53;;;;;;;33.23;21.70;;;17.90;99.90;;;;;;5075031;28;20434;-69
2023/06/23 04:44:21;;;;;;;29.30;21.23;;;17.90;99.90;;;;;;5075334;28;20438;-69
2023/06/23 04:46:52;;;;;;;30.63;21.83;;;17.90;99.90;;;;;;5075396;28;20515;-69
2023/06/23 04:49:22;;;;;;;30.90;22.50;;;17.90;99.90;;;;;;5075075;28;20445;-68
2023/06/23 04:51:53;;;;;;;30.67;21.90;;;17.90;99.90;;;;;;5074987;28;20518;-69
2023/06/23 04:54:26;;;;;;;35.40;23.67;;;17.90;99.90;;;;;;5075027;28;20488;-69
2023/06/23 04:57:00;;;;;;;26.37;20.83;;;17.90;99.90;;;;;;5074758;28;20453;-69
2023/06/23 04:59:31;;;;;;;31.77;21.50;;;17.90;99.90;;;;;;5075052;28;20442;-69
2023/06/23 05:02:02;;;;;;;24.80;19.97;;;17.90;99.90;;;;;;5075191;28;20760;-68
2023/06/23 05:04:30;;;;;;;23.67;19.80;;;17.80;99.90;;;;;;5075025;28;20442;-68
2023/06/23 05:06:59;;;;;;;27.37;20.10;;;17.90;99.90;;;;;;5074705;28;20549;-69
2023/06/23 05:09:28;;;;;;;26.53;21.60;;;17.90;99.90;;;;;;5075240;28;20841;-68
2023/06/23 05:12:00;;;;;;;26.83;20.70;;;17.90;99.90;;;;;;5074857;28;20492;-68
2023/06/23 05:14:28;;;;;;;27.70;20.50;;;17.90;99.90;;;;;;5074883;28;20464;-70
2023/06/23 05:16:58;;;;;;;28.90;20.07;;;17.90;99.90;;;;;;5074539;28;20458;-69
2023/06/23 05:19:26;;;;;;;28.70;21.77;;;17.90;99.90;;;;;;5074633;28;20526;-69
2023/06/23 05:21:56;;;;;;;24.77;20.03;;;17.90;99.90;;;;;;5074837;28;20549;-69
2023/06/23 05:24:26;;;;;;;27.17;20.10;;;17.90;99.90;;;;;;5074903;28;20791;-69
2023/06/23 05:26:56;;;;;;;26.27;20.47;;;17.90;99.90;;;;;;5074690;28;20774;-69
2023/06/23 05:29:24;;;;;;;26.43;21.10;;;17.90;99.90;;;;;;5074307;28;20458;-69
2023/06/23 05:31:52;;;;;;;26.70;19.37;;;18.00;99.90;;;;;;5074570;28;20735;-69
2023/06/23 05:34:21;;;;;;;23.30;18.50;;;18.00;99.90;;;;;;5074648;28;20545;-69
2023/06/23 05:36:49;;;;;;;22.33;16.80;;;18.00;99.90;;;;;;5074257;28;20486;-69
2023/06/23 05:39:19;;;;;;;25.30;19.20;;;18.10;99.90;;;;;;5074346;28;20525;-70
2023/06/23 05:41:46;;;;;;;23.93;18.57;;;18.10;99.90;;;;;;5074618;28;20450;-71
2023/06/23 05:44:17;;;;;;;28.43;20.47;;;18.20;99.90;;;;;;5074568;28;20464;-70
2023/06/23 05:46:47;;;;;;;29.67;21.80;;;18.20;99.90;;;;;;5074231;28;20488;-71
2023/06/23 05:49:17;;;;;;;27.93;21.67;;;18.20;99.90;;;;;;5074194;28;20454;-69
2023/06/23 05:51:45;;;;;;;27.53;20.10;;;18.20;99.90;;;;;;5074442;28;20509;-69
2023/06/23 05:54:12;;;;;;;26.90;21.70;;;18.10;99.90;;;;;;5074412;28;20466;-69
2023/06/23 05:56:45;;;;;;;27.57;21.27;;;18.10;99.90;;;;;;5074265;28;20465;-69
2023/06/23 05:59:21;;;;;;;28.00;22.43;;;18.10;99.90;;;;;;5074256;28;20446;-69
2023/06/23 06:01:52;;;;;;;28.50;21.57;;;18.10;99.90;;;;;;5073564;28;20441;-69
2023/06/23 06:04:23;;;;;;;28.60;22.63;;;18.10;99.90;;;;;;5073881;28;20493;-69
2023/06/23 06:06:53;;;;;;;30.70;23.00;;;18.10;99.90;;;;;;5074134;28;20633;-69
2023/06/23 06:09:22;;;;;;;27.57;23.50;;;18.10;99.90;;;;;;5073922;28;20458;-69
2023/06/23 06:11:51;;;;;;;26.20;21.83;;;18.10;99.90;;;;;;5073893;28;20488;-69
2023/06/23 06:14:21;;;;;;;28.17;19.33;;;18.10;99.90;;;;;;5074082;28;20458;-69
2023/06/23 06:16:49;;;;;;;28.70;21.23;;;18.10;99.90;;;;;;5074170;28;20453;-69
2023/06/23 06:19:20;;;;;;;30.37;21.47;;;18.20;99.90;;;;;;5073948;28;20468;-69
2023/06/23 06:21:49;;;;;;;30.30;20.27;;;18.20;99.90;;;;;;5074211;28;20449;-69
2023/06/23 06:24:17;;;;;;;25.97;21.20;;;18.20;99.90;;;;;;5074038;28;20454;-69
2023/06/23 06:26:46;;;;;;;24.03;20.83;;;18.20;99.90;;;;;;5074114;28;20454;-69
2023/06/23 06:29:15;;;;;;;26.77;20.77;;;18.10;99.90;;;;;;5074056;28;20519;-69
2023/06/23 06:31:45;;;;;;;30.30;21.90;;;18.20;99.90;;;;;;5074003;28;20478;-67
2023/06/23 06:34:15;;;;;;;27.87;21.70;;;18.20;99.90;;;;;;5073802;28;20489;-68
2023/06/23 06:36:43;;;;;;;27.60;21.43;;;18.20;99.90;;;;;;5073811;28;20464;-68
2023/06/23 06:39:10;;;;;;;25.20;21.10;;;18.20;99.90;;;;;;5073975;28;20525;-68
2023/06/23 06:41:38;;;;;;;28.57;21.87;;;18.30;99.90;;;;;;5073670;28;20446;-68
2023/06/23 06:44:05;;;;;;;28.00;21.83;;;18.30;99.90;;;;;;5073570;28;20937;-68
2023/06/23 06:46:33;;;;;;;27.73;21.03;;;18.30;99.90;;;;;;5073792;28;20451;-69
2023/06/23 06:49:02;;;;;;;24.73;20.20;;;18.30;99.90;;;;;;5073951;28;20458;-69
2023/06/23 06:51:30;;;;;;;24.00;20.33;;;18.30;99.90;;;;;;5073586;28;20482;-69
2023/06/23 06:53:57;;;;;;;25.63;20.80;;;18.40;99.90;;;;;;5073811;28;20464;-69
2023/06/23 06:56:24;;;;;;;26.83;21.70;;;18.40;99.90;;;;;;5074070;28;20655;-69
2023/06/23 06:58:52;;;;;;;39.53;29.07;;;18.40;99.90;;;;;;5076233;28;20468;-69
2023/06/23 07:01:19;;;;;;;31.20;24.50;;;18.40;99.90;;;;;;5077598;28;20544;-69
2023/06/23 07:03:46;;;;;;;27.70;21.97;;;18.40;99.90;;;;;;5076986;28;20930;-70
2023/06/23 07:06:14;;;;;;;25.87;21.90;;;18.40;99.90;;;;;;5077361;28;20527;-70
2023/06/23 07:08:42;;;;;;;25.60;20.83;;;18.40;99.90;;;;;;5077607;28;20541;-69
2023/06/23 07:11:10;;;;;;;25.00;20.80;;;18.50;99.90;;;;;;5076813;28;20524;-69
2023/06/23 07:13:37;;;;;;;27.07;22.50;;;18.50;99.90;;;;;;5077235;28;20458;-69
2023/06/23 07:16:04;;;;;;;28.07;21.77;;;18.60;99.90;;;;;;5077260;28;20549;-69
2023/06/23 07:18:31;;;;;;;47.43;32.33;;;18.60;99.90;;;;;;5077324;28;20830;-69
2023/06/23 07:20:58;;;;;;;34.60;24.27;;;18.60;99.90;;;;;;5077014;28;20934;-69
2023/06/23 07:23:26;;;;;;;26.30;21.90;;;18.70;99.90;;;;;;5076767;28;20591;-69
2023/06/23 07:25:53;;;;;;;30.30;21.90;;;18.70;99.90;;;;;;5076864;28;20560;-69
2023/06/23 07:28:20;;;;;;;23.70;21.13;;;18.70;99.90;;;;;;5077122;28;20772;-70
2023/06/23 07:30:47;;;;;;;27.40;23.50;;;18.80;99.90;;;;;;5077351;28;20804;-70
2023/06/23 07:33:14;;;;;;;24.97;21.70;;;18.80;99.90;;;;;;5076999;28;20958;-70
2023/06/23 07:35:41;;;;;;;26.17;20.30;;;18.70;99.90;;;;;;5077514;28;20454;-68
2023/06/23 07:38:07;;;;;;;23.03;19.57;;;18.70;99.90;;;;;;5076769;28;20487;-70
2023/06/23 07:40:36;;;;;;;23.83;19.90;;;18.70;99.90;;;;;;5076954;28;20465;-69
2023/06/23 07:43:02;;;;;;;26.93;19.87;;;18.70;99.90;;;;;;5077409;28;20809;-68
2023/06/23 07:45:29;;;;;;;22.57;20.00;;;18.70;99.90;;;;;;5076983;28;20458;-69
2023/06/23 07:47:56;;;;;;;20.77;18.57;;;18.70;99.90;;;;;;5077102;28;20459;-70
2023/06/23 07:50:23;;;;;;;22.80;19.00;;;18.60;99.90;;;;;;5076768;28;20907;-68
2023/06/23 07:52:53;;;;;;;43.83;32.10;;;18.60;99.90;;;;;;5076776;28;20478;-69
2023/06/23 07:55:20;;;;;;;20.73;17.80;;;18.60;99.90;;;;;;5076818;28;20458;-69
2023/06/23 07:57:49;;;;;;;20.97;17.80;;;18.60;99.90;;;;;;5076872;28;20450;-69
2023/06/23 08:00:17;;;;;;;24.27;21.00;;;18.60;99.90;;;;;;5076700;28;20879;-69
2023/06/23 08:02:44;;;;;;;21.17;18.97;;;18.60;99.90;;;;;;5076962;28;20482;-70
2023/06/23 08:05:14;;;;;;;30.83;23.73;;;18.60;99.90;;;;;;5077606;28;20454;-68
2023/06/23 08:07:41;;;;;;;24.37;21.60;;;18.50;99.90;;;;;;5077184;28;20454;-69
2023/06/23 08:10:08;;;;;;;20.93;17.83;;;18.50;99.90;;;;;;5076461;28;20548;-69
2023/06/23 08:12:37;;;;;;;21.50;18.50;;;18.60;99.90;;;;;;5076947;28;20478;-69
2023/06/23 08:15:09;;;;;;;25.20;20.27;;;18.50;99.90;;;;;;5076609;28;20458;-69
2023/06/23 08:17:36;;;;;;;19.93;17.27;;;18.50;99.90;;;;;;5076758;28;20485;-69
2023/06/23 08:20:03;;;;;;;18.87;16.97;;;18.50;99.90;;;;;;5076123;28;20458;-69
2023/06/23 08:22:30;;;;;;;22.03;18.17;;;18.40;99.90;;;;;;5076418;28;20454;-69
2023/06/23 08:24:56;;;;;;;19.87;17.73;;;18.40;99.90;;;;;;5076349;28;20497;-70
2023/06/23 08:27:23;;;;;;;20.03;17.80;;;18.40;99.90;;;;;;5076624;28;20458;-69
2023/06/23 08:29:50;;;;;;;21.10;18.80;;;18.50;99.90;;;;;;5076354;28;20472;-69
2023/06/23 08:32:18;;;;;;;21.93;19.53;;;18.50;99.90;;;;;;5076370;28;20569;-69
2023/06/23 08:34:45;;;;;;;20.70;18.60;;;18.60;99.90;;;;;;5077038;28;20532;-69
2023/06/23 08:37:12;;;;;;;21.37;19.17;;;18.50;99.90;;;;;;5076448;28;21029;-70
2023/06/23 08:39:39;;;;;;;21.77;19.47;;;18.60;99.90;;;;;;5076304;28;20926;-69
2023/06/23 08:42:07;;;;;;;21.23;18.90;;;18.60;99.90;;;;;;5076505;28;20556;-69
2023/06/23 08:44:37;;;;;;;21.90;19.60;;;18.60;99.90;;;;;;5075902;28;20550;-68
2023/06/23 08:47:07;;;;;;;23.57;21.17;;;18.60;99.90;;;;;;5075722;28;20581;-69
2023/06/23 08:49:40;;;;;;;25.40;21.97;;;18.60;99.90;;;;;;5075910;28;20579;-69
2023/06/23 08:52:08;;;;;;;26.07;23.27;;;18.70;99.90;;;;;;5075920;28;20476;-69
2023/06/23 08:54:36;;;;;;;29.63;23.90;;;18.70;99.90;;;;;;5075800;28;20558;-69
2023/06/23 08:57:04;;;;;;;25.93;23.13;;;18.70;99.90;;;;;;5075209;28;20497;-69
2023/06/23 08:59:31;;;;;;;25.67;23.07;;;18.70;99.90;;;;;;5076204;28;20465;-69
2023/06/23 09:01:58;;;;;;;26.90;24.10;;;18.70;99.90;;;;;;5076241;28;20534;-69
2023/06/23 09:04:24;;;;;;;29.07;25.43;;;18.70;99.90;;;;;;5075770;28;20455;-69
2023/06/23 09:06:53;;;;;;;27.47;24.57;;;18.70;99.90;;;;;;5075779;28;20564;-69
2023/06/23 09:09:20;;;;;;;29.20;25.87;;;18.70;99.90;;;;;;5075243;28;20464;-69
2023/06/23 09:11:47;;;;;;;27.07;24.33;;;18.70;99.90;;;;;;5075271;28;20784;-69
2023/06/23 09:14:14;;;;;;;29.67;26.23;;;18.70;99.90;;;;;;5075323;28;20450;-69
2023/06/23 09:16:43;;;;;;;29.43;26.23;;;18.70;99.90;;;;;;5074916;28;20549;-69
2023/06/23 09:19:10;;;;;;;27.47;24.70;;;18.70;99.90;;;;;;5075165;28;20469;-69
2023/06/23 09:21:38;;;;;;;27.63;24.83;;;18.70;99.90;;;;;;5074453;28;20980;-70
2023/06/23 09:24:08;;;;;;;25.30;22.70;;;18.70;99.90;;;;;;5075172;28;20465;-71
2023/06/23 09:26:45;;;;;;;28.30;25.50;;;18.70;99.90;;;;;;5075994;28;20537;-70
2023/06/23 09:29:19;;;;;;;28.90;25.83;;;18.60;99.90;;;;;;5075928;28;20810;-69
2023/06/23 09:31:48;;;;;;;28.47;25.20;;;18.60;99.90;;;;;;5076617;28;20474;-70
2023/06/23 09:34:22;;;;;;;29.57;26.57;;;18.60;99.90;;;;;;5076135;28;20457;-69
2023/06/23 09:36:49;;;;;;;27.50;24.67;;;18.60;99.90;;;;;;5074984;28;20488;-69
2023/06/23 09:39:17;;;;;;;31.00;27.80;;;18.70;99.90;;;;;;5075384;28;20439;-69
2023/06/23 09:41:47;;;;;;;32.17;28.77;;;18.70;99.90;;;;;;5076341;28;20450;-69
2023/06/23 09:44:14;;;;;;;32.20;28.70;;;18.70;99.90;;;;;;5076313;28;20461;-70
2023/06/23 09:46:44;;;;;;;47.63;37.13;;;18.70;99.90;;;;;;5076695;28;20941;-70
2023/06/23 09:49:11;;;;;;;37.23;31.27;;;18.80;99.90;;;;;;5076588;28;20442;-69
2023/06/23 09:51:39;;;;;;;39.67;34.67;;;18.80;99.90;;;;;;5076163;28;20549;-69
2023/06/23 09:54:06;;;;;;;35.80;32.00;;;18.70;99.90;;;;;;5076283;28;20544;-70
2023/06/23 09:56:34;;;;;;;36.60;31.73;;;18.80;99.90;;;;;;5075810;28;20473;-69
2023/06/23 09:59:02;;;;;;;40.27;32.07;;;18.80;99.90;;;;;;5075801;28;20534;-69
2023/06/23 10:01:30;;;;;;;38.50;34.20;;;18.70;99.90;;;;;;5075379;28;20533;-69
2023/06/23 10:03:58;;;;;;;47.77;41.27;;;18.70;99.90;;;;;;5076698;28;20761;-69
2023/06/23 10:06:28;;;;;;;44.90;37.93;;;18.70;99.90;;;;;;5075938;28;20747;-69
2023/06/23 10:08:56;;;;;;;36.17;32.07;;;18.70;99.90;;;;;;5075440;28;20464;-69
2023/06/23 10:11:31;;;;;;;36.73;32.73;;;18.70;99.90;;;;;;5074599;28;20554;-69
2023/06/23 10:14:01;;;;;;;36.80;32.23;;;18.60;99.90;;;;;;5074310;28;20481;-68
2023/06/23 10:16:28;;;;;;;35.20;31.53;;;18.60;99.90;;;;;;5074133;28;20538;-68
2023/06/23 10:18:55;;;;;;;35.33;31.67;;;18.60;99.90;;;;;;5073912;28;20553;-70
2023/06/23 10:21:23;;;;;;;34.27;30.87;;;18.60;99.90;;;;;;5074078;28;20550;-68
2023/06/23 10:23:52;;;;;;;36.07;32.17;;;18.60;99.90;;;;;;5074197;28;20490;-68
2023/06/23 10:26:20;;;;;;;35.03;31.33;;;18.60;99.90;;;;;;5073830;28;20486;-68
2023/06/23 10:28:49;;;;;;;40.90;36.70;;;18.70;99.90;;;;;;5074311;28;20841;-69
2023/06/23 10:31:18;;;;;;;33.80;30.20;;;18.70;99.90;;;;;;5074563;28;20464;-69
2023/06/23 10:33:47;;;;;;;33.77;30.20;;;18.70;99.90;;;;;;5078284;28;20491;-69
2023/06/23 10:36:17;;;;;;;34.23;30.73;;;18.80;99.90;;;;;;5078204;28;20834;-69
2023/06/23 10:38:47;;;;;;;33.60;30.20;;;18.80;99.90;;;;;;5078159;28;20490;-68
2023/06/23 10:41:15;;;;;;;33.30;29.90;;;18.80;99.90;;;;;;5078153;28;20965;-68
2023/06/23 10:43:48;;;;;;;32.17;28.83;;;18.80;99.90;;;;;;5078393;28;20906;-69
2023/06/23 10:46:16;;;;;;;32.87;29.57;;;18.90;99.90;;;;;;5077978;28;20430;-69
2023/06/23 10:48:44;;;;;;;34.70;30.47;;;18.90;99.90;;;;;;5078350;28;20557;-70
2023/06/23 10:51:11;;;;;;;31.70;28.30;;;18.90;99.90;;;;;;5078103;28;20786;-68
2023/06/23 10:53:45;;;;;;;34.40;30.53;;;19.00;99.90;;;;;;5077675;28;20614;-69
2023/06/23 10:56:33;;;;;;;32.60;29.27;;;19.00;99.90;;;;;;5077820;28;20456;-69
2023/06/23 10:59:00;;;;;;;32.57;29.17;;;19.00;99.90;;;;;;5077608;28;20529;-69
2023/06/23 11:01:31;;;;;;;30.27;27.27;;;18.90;99.90;;;;;;5080219;28;20926;-69
2023/06/23 11:04:03;;;;;;;34.37;30.57;;;18.90;99.90;;;;;;5079833;28;20539;-68
2023/06/23 11:06:36;;;;;;;28.53;25.73;;;18.90;99.90;;;;;;5080131;28;20465;-68
2023/06/23 11:09:04;;;;;;;24.67;22.20;;;18.80;99.90;;;;;;5078998;28;20589;-69
2023/06/23 11:11:33;;;;;;;26.80;24.07;;;18.80;99.90;;;;;;5078140;28;20485;-69
2023/06/23 11:14:00;;;;;;;24.90;22.33;;;18.80;99.90;;;;;;5080062;28;20493;-68
2023/06/23 11:16:32;;;;;;;24.90;22.50;;;18.80;99.90;;;;;;5080953;28;20489;-69
2023/06/23 11:19:02;;;;;;;23.90;21.50;;;18.70;99.90;;;;;;5081704;28;20439;-68
2023/06/23 11:21:34;;;;;;;25.83;23.10;;;18.70;99.90;;;;;;5079685;28;20451;-69
2023/06/23 11:24:13;;;;;;;27.80;24.80;;;18.70;99.90;;;;;;5079470;28;20465;-69
2023/06/23 11:26:52;;;;;;;29.47;24.27;;;18.70;99.90;;;;;;5079253;28;20517;-68
2023/06/23 11:29:21;;;;;;;28.53;25.57;;;18.70;99.90;;;;;;5079874;28;20443;-69
2023/06/23 11:32:07;;;;;;;27.60;24.70;;;18.70;99.90;;;;;;5081377;28;20926;-69
2023/06/23 11:34:54;;;;;;;29.07;25.93;;;18.70;99.90;;;;;;5077045;28;20450;-68
2023/06/23 11:37:21;;;;;;;31.30;28.10;;;18.70;99.90;;;;;;5077146;28;20481;-68
2023/06/23 11:39:49;;;;;;;34.57;29.40;;;18.70;99.90;;;;;;5077253;28;20541;-69
2023/06/23 11:42:19;;;;;;;32.57;29.17;;;18.70;99.90;;;;;;5076980;28;20548;-68
2023/06/23 11:44:48;;;;;;;31.70;28.30;;;18.70;99.90;;;;;;5079706;28;20454;-68
2023/06/23 11:47:17;;;;;;;30.67;27.20;;;18.70;99.90;;;;;;5079932;28;20464;-69
2023/06/23 11:49:44;;;;;;;34.23;30.03;;;18.70;99.90;;;;;;5077931;28;20862;-69
2023/06/23 11:52:13;;;;;;;31.60;28.20;;;18.70;99.90;;;;;;5078994;28;20549;-69
2023/06/23 11:54:41;;;;;;;35.10;30.17;;;18.70;99.90;;;;;;5078840;28;20450;-69
2023/06/23 11:57:08;;;;;;;39.63;32.87;;;18.70;99.90;;;;;;5078339;28;20463;-68
2023/06/23 11:59:36;;;;;;;37.73;31.37;;;18.70;99.90;;;;;;5078164;28;20464;-68
2023/06/23 12:02:04;;;;;;;37.97;33.93;;;18.70;99.90;;;;;;5077817;28;20855;-68
2023/06/23 12:04:32;;;;;;;42.37;34.90;;;18.70;99.90;;;;;;5077522;28;20783;-68
2023/06/23 12:07:00;;;;;;;32.10;27.40;;;18.70;99.90;;;;;;5076668;28;20469;-69
2023/06/23 12:09:27;;;;;;;26.23;23.37;;;18.70;99.90;;;;;;5078028;28;20458;-68
2023/06/23 12:11:58;;;;;;;25.53;22.43;;;18.60;99.90;;;;;;5078644;28;20478;-69
2023/06/23 12:14:29;;;;;;;24.73;21.80;;;18.50;99.90;;;;;;5080742;28;21017;-67
2023/06/23 12:17:05;;;;;;;22.50;18.60;;;18.50;99.90;;;;;;5076909;28;20458;-68
2023/06/23 12:19:34;;;;;;;20.23;18.10;;;18.50;99.90;;;;;;5077238;28;20442;-68
2023/06/23 12:22:02;;;;;;;22.40;17.03;;;18.50;99.90;;;;;;5077373;28;20447;-69
2023/06/23 12:24:31;;;;;;;20.27;17.97;;;18.40;99.90;;;;;;5076445;28;20458;-69
2023/06/23 12:26:59;;;;;;;22.47;17.37;;;18.40;99.90;;;;;;5076345;28;20568;-69
2023/06/23 12:29:26;;;;;;;21.07;17.00;;;18.30;99.90;;;;;;5075926;28;20458;-69
2023/06/23 12:31:58;;;;;;;21.77;16.77;;;18.30;99.90;;;;;;5075909;28;20454;-69
2023/06/23 12:34:32;;;;;;;19.63;16.57;;;18.20;99.90;;;;;;5075694;28;20822;-69
2023/06/23 12:37:05;;;;;;;21.10;16.60;;;18.20;99.90;;;;;;5075671;28;20492;-69
2023/06/23 12:39:33;;;;;;;19.13;15.47;;;18.10;99.90;;;;;;5075678;28;20573;-69